sensor_id;sensor_type;location;lat;lon;timestamp;P1;durP1;ratioP1;P2;durP2;ratioP2
57599;SDS011;43426;43.594;24.334;2023-06-14T00:06:25;7.80;;;7.20;;
57599;SDS011;43426;43.594;24.334;2023-06-14T00:08:51;8.90;;;8.10;;
57599;SDS011;43426;43.594;24.334;2023-06-14T00:13:41;8.55;;;7.85;;
57599;SDS011;43426;43.594;24.334;2023-06-14T00:16:08;8.90;;;8.00;;
57599;SDS011;43426;43.594;24.334;2023-06-14T00:20:59;8.85;;;7.97;;
57599;SDS011;43426;43.594;24.334;2023-06-14T00:25:50;10.00;;;8.25;;
57599;SDS011;43426;43.594;24.334;2023-06-14T00:30:41;8.27;;;7.57;;
57599;SDS011;43426;43.594;24.334;2023-06-14T00:33:09;8.30;;;7.50;;
57599;SDS011;43426;43.594;24.334;2023-06-14T00:37:59;7.78;;;7.07;;
57599;SDS011;43426;43.594;24.334;2023-06-14T00:40:26;7.90;;;7.30;;
57599;SDS011;43426;43.594;24.334;2023-06-14T00:45:17;7.70;;;7.03;;
57599;SDS011;43426;43.594;24.334;2023-06-14T00:47:42;7.85;;;7.00;;
57599;SDS011;43426;43.594;24.334;2023-06-14T00:50:09;8.48;;;7.72;;
57599;SDS011;43426;43.594;24.334;2023-06-14T00:55:00;7.70;;;7.10;;
57599;SDS011;43426;43.594;24.334;2023-06-14T00:57:27;6.95;;;6.45;;
57599;SDS011;43426;43.594;24.334;2023-06-14T00:59:52;7.18;;;6.63;;
57599;SDS011;43426;43.594;24.334;2023-06-14T01:02:19;8.48;;;7.15;;
57599;SDS011;43426;43.594;24.334;2023-06-14T01:10:12;7.93;;;7.32;;
57599;SDS011;43426;43.594;24.334;2023-06-14T01:15:23;7.68;;;7.07;;
57599;SDS011;43426;43.594;24.334;2023-06-14T01:17:50;7.20;;;6.70;;
57599;SDS011;43426;43.594;24.334;2023-06-14T01:20:16;7.50;;;7.00;;
57599;SDS011;43426;43.594;24.334;2023-06-14T01:22:51;7.75;;;6.93;;
57599;SDS011;43426;43.594;24.334;2023-06-14T01:25:18;9.25;;;7.40;;
57599;SDS011;43426;43.594;24.334;2023-06-14T01:27:55;8.52;;;7.70;;
57599;SDS011;43426;43.594;24.334;2023-06-14T01:30:26;8.20;;;7.60;;
57599;SDS011;43426;43.594;24.334;2023-06-14T01:32:53;8.60;;;7.80;;
57599;SDS011;43426;43.594;24.334;2023-06-14T01:35:20;10.05;;;7.95;;
57599;SDS011;43426;43.594;24.334;2023-06-14T01:37:47;9.98;;;8.00;;
57599;SDS011;43426;43.594;24.334;2023-06-14T01:40:13;7.88;;;7.18;;
57599;SDS011;43426;43.594;24.334;2023-06-14T01:42:40;7.40;;;6.80;;
57599;SDS011;43426;43.594;24.334;2023-06-14T01:45:06;8.93;;;8.13;;
57599;SDS011;43426;43.594;24.334;2023-06-14T01:47:34;7.43;;;6.57;;
57599;SDS011;43426;43.594;24.334;2023-06-14T01:50:03;7.45;;;6.85;;
57599;SDS011;43426;43.594;24.334;2023-06-14T01:54:54;7.65;;;7.03;;
57599;SDS011;43426;43.594;24.334;2023-06-14T01:59:46;8.35;;;7.68;;
57599;SDS011;43426;43.594;24.334;2023-06-14T02:02:15;7.38;;;6.78;;
57599;SDS011;43426;43.594;24.334;2023-06-14T02:07:07;7.43;;;6.82;;
57599;SDS011;43426;43.594;24.334;2023-06-14T02:09:35;8.18;;;7.57;;
57599;SDS011;43426;43.594;24.334;2023-06-14T02:14:26;7.90;;;7.30;;
57599;SDS011;43426;43.594;24.334;2023-06-14T02:19:18;11.25;;;8.15;;
57599;SDS011;43426;43.594;24.334;2023-06-14T02:21:44;8.45;;;7.75;;
57599;SDS011;43426;43.594;24.334;2023-06-14T02:26:36;8.32;;;6.97;;
57599;SDS011;43426;43.594;24.334;2023-06-14T02:29:08;9.25;;;8.05;;
57599;SDS011;43426;43.594;24.334;2023-06-14T02:31:36;8.55;;;7.95;;
57599;SDS011;43426;43.594;24.334;2023-06-14T02:36:27;8.25;;;7.55;;
57599;SDS011;43426;43.594;24.334;2023-06-14T02:38:54;8.88;;;8.18;;
57599;SDS011;43426;43.594;24.334;2023-06-14T02:41:22;8.63;;;7.75;;
57599;SDS011;43426;43.594;24.334;2023-06-14T02:43:51;9.38;;;8.57;;
57599;SDS011;43426;43.594;24.334;2023-06-14T02:48:42;8.75;;;7.90;;
57599;SDS011;43426;43.594;24.334;2023-06-14T02:53:35;9.30;;;7.67;;
57599;SDS011;43426;43.594;24.334;2023-06-14T02:56:01;8.23;;;7.53;;
57599;SDS011;43426;43.594;24.334;2023-06-14T02:58:28;7.95;;;7.35;;
57599;SDS011;43426;43.594;24.334;2023-06-14T03:03:20;8.57;;;7.88;;
57599;SDS011;43426;43.594;24.334;2023-06-14T03:05:47;8.02;;;7.43;;
57599;SDS011;43426;43.594;24.334;2023-06-14T03:08:18;8.70;;;7.85;;
57599;SDS011;43426;43.594;24.334;2023-06-14T03:10:47;8.52;;;7.93;;
57599;SDS011;43426;43.594;24.334;2023-06-14T03:13:14;9.35;;;7.82;;
57599;SDS011;43426;43.594;24.334;2023-06-14T03:15:41;8.25;;;7.55;;
57599;SDS011;43426;43.594;24.334;2023-06-14T03:18:10;9.35;;;8.32;;
57599;SDS011;43426;43.594;24.334;2023-06-14T03:20:37;11.10;;;7.30;;
57599;SDS011;43426;43.594;24.334;2023-06-14T03:23:04;8.35;;;7.72;;
57599;SDS011;43426;43.594;24.334;2023-06-14T03:25:30;9.63;;;8.60;;
57599;SDS011;43426;43.594;24.334;2023-06-14T03:30:22;7.80;;;7.15;;
57599;SDS011;43426;43.594;24.334;2023-06-14T03:35:13;8.20;;;7.60;;
57599;SDS011;43426;43.594;24.334;2023-06-14T03:37:45;11.15;;;8.38;;
57599;SDS011;43426;43.594;24.334;2023-06-14T03:40:12;8.40;;;7.60;;
57599;SDS011;43426;43.594;24.334;2023-06-14T03:42:38;9.40;;;8.50;;
57599;SDS011;43426;43.594;24.334;2023-06-14T03:47:30;8.73;;;7.93;;
57599;SDS011;43426;43.594;24.334;2023-06-14T03:52:21;8.40;;;7.70;;
57599;SDS011;43426;43.594;24.334;2023-06-14T03:54:48;8.82;;;7.93;;
57599;SDS011;43426;43.594;24.334;2023-06-14T03:59:39;9.05;;;7.10;;
57599;SDS011;43426;43.594;24.334;2023-06-14T04:04:30;7.68;;;7.05;;
57599;SDS011;43426;43.594;24.334;2023-06-14T04:06:55;8.48;;;7.78;;
57599;SDS011;43426;43.594;24.334;2023-06-14T04:09:23;8.68;;;7.95;;
57599;SDS011;43426;43.594;24.334;2023-06-14T04:11:50;12.05;;;8.10;;
57599;SDS011;43426;43.594;24.334;2023-06-14T04:14:17;8.65;;;7.88;;
57599;SDS011;43426;43.594;24.334;2023-06-14T04:16:44;8.05;;;7.45;;
57599;SDS011;43426;43.594;24.334;2023-06-14T04:19:10;8.70;;;8.00;;
57599;SDS011;43426;43.594;24.334;2023-06-14T04:24:00;8.23;;;7.60;;
57599;SDS011;43426;43.594;24.334;2023-06-14T04:26:26;9.63;;;8.77;;
57599;SDS011;43426;43.594;24.334;2023-06-14T04:28:55;8.70;;;8.00;;
57599;SDS011;43426;43.594;24.334;2023-06-14T04:31:22;9.35;;;8.57;;
57599;SDS011;43426;43.594;24.334;2023-06-14T04:33:50;11.80;;;9.27;;
57599;SDS011;43426;43.594;24.334;2023-06-14T04:36:18;9.35;;;8.40;;
57599;SDS011;43426;43.594;24.334;2023-06-14T04:41:10;10.00;;;9.20;;
57599;SDS011;43426;43.594;24.334;2023-06-14T04:43:36;10.20;;;9.18;;
57599;SDS011;43426;43.594;24.334;2023-06-14T04:46:03;12.65;;;9.27;;
57599;SDS011;43426;43.594;24.334;2023-06-14T04:48:30;9.50;;;8.20;;
57599;SDS011;43426;43.594;24.334;2023-06-14T04:53:21;9.43;;;8.52;;
57599;SDS011;43426;43.594;24.334;2023-06-14T04:55:48;9.82;;;8.93;;
57599;SDS011;43426;43.594;24.334;2023-06-14T05:00:39;10.40;;;9.40;;
57599;SDS011;43426;43.594;24.334;2023-06-14T05:03:04;10.50;;;9.43;;
57599;SDS011;43426;43.594;24.334;2023-06-14T05:05:31;13.20;;;9.50;;
57599;SDS011;43426;43.594;24.334;2023-06-14T05:07:57;11.70;;;9.85;;
57599;SDS011;43426;43.594;24.334;2023-06-14T05:12:48;12.07;;;10.98;;
57599;SDS011;43426;43.594;24.334;2023-06-14T05:15:14;12.23;;;10.63;;
57599;SDS011;43426;43.594;24.334;2023-06-14T05:17:40;11.70;;;10.52;;
57599;SDS011;43426;43.594;24.334;2023-06-14T05:20:06;11.18;;;10.02;;
57599;SDS011;43426;43.594;24.334;2023-06-14T05:22:32;12.43;;;11.18;;
57599;SDS011;43426;43.594;24.334;2023-06-14T05:27:23;12.63;;;11.35;;
57599;SDS011;43426;43.594;24.334;2023-06-14T05:29:49;12.10;;;10.55;;
57599;SDS011;43426;43.594;24.334;2023-06-14T05:32:15;21.98;;;15.23;;
57599;SDS011;43426;43.594;24.334;2023-06-14T05:34:40;16.77;;;12.57;;
57599;SDS011;43426;43.594;24.334;2023-06-14T05:37:06;15.27;;;12.68;;
57599;SDS011;43426;43.594;24.334;2023-06-14T05:39:31;17.73;;;12.60;;
57599;SDS011;43426;43.594;24.334;2023-06-14T05:41:57;19.05;;;14.20;;
57599;SDS011;43426;43.594;24.334;2023-06-14T05:46:48;21.58;;;14.00;;
57599;SDS011;43426;43.594;24.334;2023-06-14T05:49:14;19.65;;;13.80;;
57599;SDS011;43426;43.594;24.334;2023-06-14T05:51:39;19.02;;;14.60;;
57599;SDS011;43426;43.594;24.334;2023-06-14T05:54:04;13.98;;;12.48;;
57599;SDS011;43426;43.594;24.334;2023-06-14T05:56:30;14.82;;;12.30;;
57599;SDS011;43426;43.594;24.334;2023-06-14T05:58:55;17.63;;;13.85;;
57599;SDS011;43426;43.594;24.334;2023-06-14T06:01:21;17.95;;;14.77;;
57599;SDS011;43426;43.594;24.334;2023-06-14T06:03:46;19.55;;;14.35;;
57599;SDS011;43426;43.594;24.334;2023-06-14T06:06:12;19.60;;;13.50;;
57599;SDS011;43426;43.594;24.334;2023-06-14T06:08:39;16.10;;;13.68;;
57599;SDS011;43426;43.594;24.334;2023-06-14T06:11:05;14.52;;;13.00;;
57599;SDS011;43426;43.594;24.334;2023-06-14T06:13:31;24.60;;;13.90;;
57599;SDS011;43426;43.594;24.334;2023-06-14T06:15:56;16.40;;;13.88;;
57599;SDS011;43426;43.594;24.334;2023-06-14T06:18:21;16.15;;;13.40;;
57599;SDS011;43426;43.594;24.334;2023-06-14T06:20:47;13.98;;;12.68;;
57599;SDS011;43426;43.594;24.334;2023-06-14T06:23:12;16.48;;;14.15;;
57599;SDS011;43426;43.594;24.334;2023-06-14T06:25:38;16.95;;;13.32;;
57599;SDS011;43426;43.594;24.334;2023-06-14T06:28:03;16.13;;;13.82;;
57599;SDS011;43426;43.594;24.334;2023-06-14T06:30:29;16.98;;;14.10;;
57599;SDS011;43426;43.594;24.334;2023-06-14T06:32:54;16.30;;;13.80;;
57599;SDS011;43426;43.594;24.334;2023-06-14T06:35:20;20.92;;;15.55;;
57599;SDS011;43426;43.594;24.334;2023-06-14T06:37:49;18.15;;;13.82;;
57599;SDS011;43426;43.594;24.334;2023-06-14T06:40:14;15.88;;;14.23;;
57599;SDS011;43426;43.594;24.334;2023-06-14T06:42:40;16.45;;;14.45;;
57599;SDS011;43426;43.594;24.334;2023-06-14T06:45:05;19.38;;;14.50;;
57599;SDS011;43426;43.594;24.334;2023-06-14T06:47:31;17.13;;;14.20;;
57599;SDS011;43426;43.594;24.334;2023-06-14T06:49:56;19.05;;;14.18;;
57599;SDS011;43426;43.594;24.334;2023-06-14T06:52:22;16.65;;;14.88;;
57599;SDS011;43426;43.594;24.334;2023-06-14T06:54:47;20.13;;;14.45;;
57599;SDS011;43426;43.594;24.334;2023-06-14T06:57:14;17.20;;;14.65;;
57599;SDS011;43426;43.594;24.334;2023-06-14T06:59:39;15.63;;;14.10;;
57599;SDS011;43426;43.594;24.334;2023-06-14T07:02:05;19.90;;;14.30;;
57599;SDS011;43426;43.594;24.334;2023-06-14T07:04:31;19.83;;;13.90;;
57599;SDS011;43426;43.594;24.334;2023-06-14T07:06:56;15.07;;;13.50;;
57599;SDS011;43426;43.594;24.334;2023-06-14T07:09:21;15.23;;;13.60;;
57599;SDS011;43426;43.594;24.334;2023-06-14T07:11:47;19.02;;;14.25;;
57599;SDS011;43426;43.594;24.334;2023-06-14T07:14:13;17.50;;;15.43;;
57599;SDS011;43426;43.594;24.334;2023-06-14T07:16:39;17.92;;;15.40;;
57599;SDS011;43426;43.594;24.334;2023-06-14T07:19:06;16.48;;;14.52;;
57599;SDS011;43426;43.594;24.334;2023-06-14T07:21:31;16.23;;;13.93;;
57599;SDS011;43426;43.594;24.334;2023-06-14T07:23:56;22.00;;;14.88;;
57599;SDS011;43426;43.594;24.334;2023-06-14T07:26:22;15.02;;;13.45;;
57599;SDS011;43426;43.594;24.334;2023-06-14T07:28:48;15.27;;;13.70;;
57599;SDS011;43426;43.594;24.334;2023-06-14T07:31:14;19.65;;;13.80;;
57599;SDS011;43426;43.594;24.334;2023-06-14T07:33:40;14.27;;;12.88;;
57599;SDS011;43426;43.594;24.334;2023-06-14T07:36:06;15.43;;;12.88;;
57599;SDS011;43426;43.594;24.334;2023-06-14T07:38:32;16.75;;;12.23;;
57599;SDS011;43426;43.594;24.334;2023-06-14T07:40:57;14.65;;;12.23;;
57599;SDS011;43426;43.594;24.334;2023-06-14T07:43:23;13.57;;;12.23;;
57599;SDS011;43426;43.594;24.334;2023-06-14T07:45:48;17.10;;;12.88;;
57599;SDS011;43426;43.594;24.334;2023-06-14T07:48:14;13.88;;;12.35;;
57599;SDS011;43426;43.594;24.334;2023-06-14T07:50:39;16.70;;;12.25;;
57599;SDS011;43426;43.594;24.334;2023-06-14T07:53:06;13.27;;;11.98;;
57599;SDS011;43426;43.594;24.334;2023-06-14T07:55:31;13.63;;;12.15;;
57599;SDS011;43426;43.594;24.334;2023-06-14T07:57:57;13.13;;;11.85;;
57599;SDS011;43426;43.594;24.334;2023-06-14T08:00:23;13.52;;;12.32;;
57599;SDS011;43426;43.594;24.334;2023-06-14T08:02:49;14.02;;;12.63;;
57599;SDS011;43426;43.594;24.334;2023-06-14T08:05:15;13.02;;;11.82;;
57599;SDS011;43426;43.594;24.334;2023-06-14T08:07:41;13.85;;;12.40;;
57599;SDS011;43426;43.594;24.334;2023-06-14T08:10:07;13.65;;;12.35;;
57599;SDS011;43426;43.594;24.334;2023-06-14T08:12:33;12.93;;;11.73;;
57599;SDS011;43426;43.594;24.334;2023-06-14T08:14:59;13.25;;;11.95;;
57599;SDS011;43426;43.594;24.334;2023-06-14T08:17:26;16.45;;;12.23;;
57599;SDS011;43426;43.594;24.334;2023-06-14T08:19:52;12.77;;;11.48;;
57599;SDS011;43426;43.594;24.334;2023-06-14T08:22:19;13.77;;;12.48;;
57599;SDS011;43426;43.594;24.334;2023-06-14T08:24:46;15.75;;;12.63;;
57599;SDS011;43426;43.594;24.334;2023-06-14T08:27:12;13.93;;;12.40;;
57599;SDS011;43426;43.594;24.334;2023-06-14T08:29:38;13.82;;;11.77;;
57599;SDS011;43426;43.594;24.334;2023-06-14T08:32:05;12.20;;;10.75;;
57599;SDS011;43426;43.594;24.334;2023-06-14T08:34:31;12.93;;;11.57;;
57599;SDS011;43426;43.594;24.334;2023-06-14T08:36:57;12.70;;;11.60;;
57599;SDS011;43426;43.594;24.334;2023-06-14T08:39:22;13.93;;;11.35;;
57599;SDS011;43426;43.594;24.334;2023-06-14T08:41:48;13.13;;;11.93;;
57599;SDS011;43426;43.594;24.334;2023-06-14T08:44:14;11.20;;;10.30;;
57599;SDS011;43426;43.594;24.334;2023-06-14T08:46:40;14.02;;;10.30;;
57599;SDS011;43426;43.594;24.334;2023-06-14T08:49:07;11.38;;;10.43;;
57599;SDS011;43426;43.594;24.334;2023-06-14T08:51:35;11.60;;;10.43;;
57599;SDS011;43426;43.594;24.334;2023-06-14T08:54:01;10.63;;;9.73;;
57599;SDS011;43426;43.594;24.334;2023-06-14T08:56:29;11.05;;;10.18;;
57599;SDS011;43426;43.594;24.334;2023-06-14T08:58:59;11.20;;;10.20;;
57599;SDS011;43426;43.594;24.334;2023-06-14T09:01:28;9.38;;;8.57;;
57599;SDS011;43426;43.594;24.334;2023-06-14T09:03:53;10.63;;;9.70;;
57599;SDS011;43426;43.594;24.334;2023-06-14T09:06:22;10.05;;;9.07;;
57599;SDS011;43426;43.594;24.334;2023-06-14T09:08:48;10.07;;;9.18;;
57599;SDS011;43426;43.594;24.334;2023-06-14T09:11:14;10.63;;;9.63;;
57599;SDS011;43426;43.594;24.334;2023-06-14T09:13:43;9.68;;;8.88;;
57599;SDS011;43426;43.594;24.334;2023-06-14T09:16:10;10.25;;;9.25;;
57599;SDS011;43426;43.594;24.334;2023-06-14T09:18:43;10.10;;;9.20;;
57599;SDS011;43426;43.594;24.334;2023-06-14T09:21:18;9.30;;;8.50;;
57599;SDS011;43426;43.594;24.334;2023-06-14T09:26:17;8.18;;;7.47;;
57599;SDS011;43426;43.594;24.334;2023-06-14T09:28:48;10.68;;;7.57;;
57599;SDS011;43426;43.594;24.334;2023-06-14T09:31:15;7.45;;;6.85;;
57599;SDS011;43426;43.594;24.334;2023-06-14T09:33:42;8.68;;;6.80;;
57599;SDS011;43426;43.594;24.334;2023-06-14T09:36:13;7.10;;;6.60;;
57599;SDS011;43426;43.594;24.334;2023-06-14T09:38:41;8.18;;;7.47;;
57599;SDS011;43426;43.594;24.334;2023-06-14T09:41:06;7.72;;;7.13;;
57599;SDS011;43426;43.594;24.334;2023-06-14T09:43:33;8.50;;;7.70;;
57599;SDS011;43426;43.594;24.334;2023-06-14T09:46:00;11.65;;;7.97;;
57599;SDS011;43426;43.594;24.334;2023-06-14T09:48:26;8.50;;;7.80;;
57599;SDS011;43426;43.594;24.334;2023-06-14T09:50:51;8.38;;;7.65;;
57599;SDS011;43426;43.594;24.334;2023-06-14T09:53:21;8.15;;;7.47;;
57599;SDS011;43426;43.594;24.334;2023-06-14T09:55:48;7.50;;;6.90;;
57599;SDS011;43426;43.594;24.334;2023-06-14T09:58:14;6.90;;;6.40;;
57599;SDS011;43426;43.594;24.334;2023-06-14T10:00:41;7.28;;;6.65;;
57599;SDS011;43426;43.594;24.334;2023-06-14T10:03:16;7.32;;;6.63;;
57599;SDS011;43426;43.594;24.334;2023-06-14T10:05:51;7.07;;;6.38;;
57599;SDS011;43426;43.594;24.334;2023-06-14T10:08:18;7.05;;;6.55;;
57599;SDS011;43426;43.594;24.334;2023-06-14T10:10:49;7.20;;;6.65;;
57599;SDS011;43426;43.594;24.334;2023-06-14T10:13:15;7.15;;;6.47;;
57599;SDS011;43426;43.594;24.334;2023-06-14T10:15:48;10.82;;;7.28;;
57599;SDS011;43426;43.594;24.334;2023-06-14T10:21:16;7.05;;;6.47;;
57599;SDS011;43426;43.594;24.334;2023-06-14T10:23:48;6.55;;;6.05;;
57599;SDS011;43426;43.594;24.334;2023-06-14T10:26:22;6.30;;;5.90;;
57599;SDS011;43426;43.594;24.334;2023-06-14T10:29:07;7.07;;;6.57;;
57599;SDS011;43426;43.594;24.334;2023-06-14T10:31:43;7.18;;;6.57;;
57599;SDS011;43426;43.594;24.334;2023-06-14T10:34:10;7.55;;;6.90;;
57599;SDS011;43426;43.594;24.334;2023-06-14T10:36:37;6.85;;;6.35;;
57599;SDS011;43426;43.594;24.334;2023-06-14T10:39:15;6.90;;;6.35;;
57599;SDS011;43426;43.594;24.334;2023-06-14T10:41:42;5.75;;;5.35;;
57599;SDS011;43426;43.594;24.334;2023-06-14T10:46:45;7.97;;;6.25;;
57599;SDS011;43426;43.594;24.334;2023-06-14T10:49:12;6.85;;;6.20;;
57599;SDS011;43426;43.594;24.334;2023-06-14T10:51:43;7.93;;;6.30;;
57599;SDS011;43426;43.594;24.334;2023-06-14T10:54:12;7.55;;;6.15;;
57599;SDS011;43426;43.594;24.334;2023-06-14T10:56:43;6.85;;;6.45;;
57599;SDS011;43426;43.594;24.334;2023-06-14T10:59:12;7.60;;;6.85;;
57599;SDS011;43426;43.594;24.334;2023-06-14T11:01:45;6.88;;;6.38;;
57599;SDS011;43426;43.594;24.334;2023-06-14T11:04:40;6.70;;;6.20;;
57599;SDS011;43426;43.594;24.334;2023-06-14T11:12:41;6.65;;;6.15;;
57599;SDS011;43426;43.594;24.334;2023-06-14T11:15:10;7.15;;;6.63;;
57599;SDS011;43426;43.594;24.334;2023-06-14T11:17:36;6.70;;;5.97;;
57599;SDS011;43426;43.594;24.334;2023-06-14T11:20:11;6.00;;;5.60;;
57599;SDS011;43426;43.594;24.334;2023-06-14T11:22:43;7.97;;;5.80;;
57599;SDS011;43426;43.594;24.334;2023-06-14T11:25:09;5.28;;;4.88;;
57599;SDS011;43426;43.594;24.334;2023-06-14T11:27:35;6.53;;;5.90;;
57599;SDS011;43426;43.594;24.334;2023-06-14T11:30:01;6.10;;;5.60;;
57599;SDS011;43426;43.594;24.334;2023-06-14T11:32:27;7.38;;;5.93;;
57599;SDS011;43426;43.594;24.334;2023-06-14T11:34:52;6.30;;;5.55;;
57599;SDS011;43426;43.594;24.334;2023-06-14T11:37:18;7.00;;;6.28;;
57599;SDS011;43426;43.594;24.334;2023-06-14T11:39:44;6.63;;;6.03;;
57599;SDS011;43426;43.594;24.334;2023-06-14T11:42:14;6.13;;;5.55;;
57599;SDS011;43426;43.594;24.334;2023-06-14T11:44:40;6.20;;;5.60;;
57599;SDS011;43426;43.594;24.334;2023-06-14T11:47:06;6.10;;;5.60;;
57599;SDS011;43426;43.594;24.334;2023-06-14T11:49:35;5.60;;;5.20;;
57599;SDS011;43426;43.594;24.334;2023-06-14T11:52:01;5.90;;;5.32;;
57599;SDS011;43426;43.594;24.334;2023-06-14T11:54:27;5.82;;;5.43;;
57599;SDS011;43426;43.594;24.334;2023-06-14T11:56:53;5.88;;;5.38;;
57599;SDS011;43426;43.594;24.334;2023-06-14T11:59:18;6.20;;;5.70;;
57599;SDS011;43426;43.594;24.334;2023-06-14T12:01:45;6.85;;;5.68;;
57599;SDS011;43426;43.594;24.334;2023-06-14T12:04:13;5.78;;;5.38;;
57599;SDS011;43426;43.594;24.334;2023-06-14T12:06:38;5.25;;;4.85;;
57599;SDS011;43426;43.594;24.334;2023-06-14T12:09:05;5.50;;;5.00;;
57599;SDS011;43426;43.594;24.334;2023-06-14T12:11:43;6.88;;;4.43;;
57599;SDS011;43426;43.594;24.334;2023-06-14T12:14:08;5.38;;;4.88;;
57599;SDS011;43426;43.594;24.334;2023-06-14T12:16:35;5.07;;;4.55;;
57599;SDS011;43426;43.594;24.334;2023-06-14T12:19:12;5.32;;;4.93;;
57599;SDS011;43426;43.594;24.334;2023-06-14T12:21:39;5.18;;;4.78;;
57599;SDS011;43426;43.594;24.334;2023-06-14T12:24:06;10.27;;;4.55;;
57599;SDS011;43426;43.594;24.334;2023-06-14T12:26:32;5.55;;;4.70;;
57599;SDS011;43426;43.594;24.334;2023-06-14T12:28:57;4.47;;;4.18;;
57599;SDS011;43426;43.594;24.334;2023-06-14T12:31:23;4.80;;;4.50;;
57599;SDS011;43426;43.594;24.334;2023-06-14T12:33:49;4.70;;;4.30;;
57599;SDS011;43426;43.594;24.334;2023-06-14T12:36:15;4.78;;;4.47;;
57599;SDS011;43426;43.594;24.334;2023-06-14T12:38:41;4.90;;;4.60;;
57599;SDS011;43426;43.594;24.334;2023-06-14T12:41:07;4.93;;;4.53;;
57599;SDS011;43426;43.594;24.334;2023-06-14T12:43:33;4.25;;;3.95;;
57599;SDS011;43426;43.594;24.334;2023-06-14T12:45:59;4.90;;;4.57;;
57599;SDS011;43426;43.594;24.334;2023-06-14T12:48:25;5.10;;;4.70;;
57599;SDS011;43426;43.594;24.334;2023-06-14T12:50:52;4.50;;;4.20;;
57599;SDS011;43426;43.594;24.334;2023-06-14T12:53:18;4.43;;;4.13;;
57599;SDS011;43426;43.594;24.334;2023-06-14T12:55:44;4.28;;;3.97;;
57599;SDS011;43426;43.594;24.334;2023-06-14T12:58:09;4.35;;;4.00;;
57599;SDS011;43426;43.594;24.334;2023-06-14T13:00:37;3.80;;;3.42;;
57599;SDS011;43426;43.594;24.334;2023-06-14T13:03:03;4.45;;;3.63;;
57599;SDS011;43426;43.594;24.334;2023-06-14T13:05:28;4.22;;;3.95;;
57599;SDS011;43426;43.594;24.334;2023-06-14T13:07:56;4.15;;;3.85;;
57599;SDS011;43426;43.594;24.334;2023-06-14T13:10:21;4.20;;;3.90;;
57599;SDS011;43426;43.594;24.334;2023-06-14T13:12:47;3.75;;;3.55;;
57599;SDS011;43426;43.594;24.334;2023-06-14T13:15:12;4.53;;;4.22;;
57599;SDS011;43426;43.594;24.334;2023-06-14T13:17:38;4.68;;;4.32;;
57599;SDS011;43426;43.594;24.334;2023-06-14T13:20:07;4.07;;;3.78;;
57599;SDS011;43426;43.594;24.334;2023-06-14T13:22:36;3.78;;;3.47;;
57599;SDS011;43426;43.594;24.334;2023-06-14T13:25:02;7.57;;;3.72;;
57599;SDS011;43426;43.594;24.334;2023-06-14T13:27:28;3.90;;;3.60;;
57599;SDS011;43426;43.594;24.334;2023-06-14T13:29:54;4.55;;;4.18;;
57599;SDS011;43426;43.594;24.334;2023-06-14T13:32:22;3.72;;;3.42;;
57599;SDS011;43426;43.594;24.334;2023-06-14T13:34:48;3.95;;;3.75;;
57599;SDS011;43426;43.594;24.334;2023-06-14T13:37:14;4.07;;;3.78;;
57599;SDS011;43426;43.594;24.334;2023-06-14T13:39:39;4.18;;;3.88;;
57599;SDS011;43426;43.594;24.334;2023-06-14T13:42:05;4.55;;;4.25;;
57599;SDS011;43426;43.594;24.334;2023-06-14T13:44:31;4.68;;;4.38;;
57599;SDS011;43426;43.594;24.334;2023-06-14T13:46:57;5.72;;;4.72;;
57599;SDS011;43426;43.594;24.334;2023-06-14T13:49:22;5.07;;;4.75;;
57599;SDS011;43426;43.594;24.334;2023-06-14T13:51:48;5.50;;;5.00;;
57599;SDS011;43426;43.594;24.334;2023-06-14T13:54:14;7.55;;;4.65;;
57599;SDS011;43426;43.594;24.334;2023-06-14T13:56:40;5.18;;;4.68;;
57599;SDS011;43426;43.594;24.334;2023-06-14T13:59:06;5.20;;;4.90;;
57599;SDS011;43426;43.594;24.334;2023-06-14T14:01:32;4.45;;;4.15;;
57599;SDS011;43426;43.594;24.334;2023-06-14T14:03:58;4.80;;;4.40;;
57599;SDS011;43426;43.594;24.334;2023-06-14T14:06:25;4.70;;;4.32;;
57599;SDS011;43426;43.594;24.334;2023-06-14T14:08:51;4.82;;;4.40;;
57599;SDS011;43426;43.594;24.334;2023-06-14T14:11:18;4.30;;;3.90;;
57599;SDS011;43426;43.594;24.334;2023-06-14T14:13:44;5.00;;;4.60;;
57599;SDS011;43426;43.594;24.334;2023-06-14T14:16:09;4.68;;;4.28;;
57599;SDS011;43426;43.594;24.334;2023-06-14T14:18:35;4.60;;;4.22;;
57599;SDS011;43426;43.594;24.334;2023-06-14T14:21:02;4.20;;;3.90;;
57599;SDS011;43426;43.594;24.334;2023-06-14T14:23:27;4.25;;;3.90;;
57599;SDS011;43426;43.594;24.334;2023-06-14T14:25:53;4.40;;;3.60;;
57599;SDS011;43426;43.594;24.334;2023-06-14T14:28:19;3.85;;;3.65;;
57599;SDS011;43426;43.594;24.334;2023-06-14T14:30:45;4.25;;;3.85;;
57599;SDS011;43426;43.594;24.334;2023-06-14T14:33:13;4.40;;;4.10;;
57599;SDS011;43426;43.594;24.334;2023-06-14T14:35:46;5.38;;;3.75;;
57599;SDS011;43426;43.594;24.334;2023-06-14T14:38:12;4.38;;;4.07;;
57599;SDS011;43426;43.594;24.334;2023-06-14T14:40:38;4.10;;;3.90;;
57599;SDS011;43426;43.594;24.334;2023-06-14T14:43:04;4.35;;;4.05;;
57599;SDS011;43426;43.594;24.334;2023-06-14T14:45:30;5.65;;;3.92;;
57599;SDS011;43426;43.594;24.334;2023-06-14T14:47:56;4.28;;;3.88;;
57599;SDS011;43426;43.594;24.334;2023-06-14T14:50:21;4.07;;;3.72;;
57599;SDS011;43426;43.594;24.334;2023-06-14T14:52:47;3.92;;;3.63;;
57599;SDS011;43426;43.594;24.334;2023-06-14T14:55:12;3.92;;;3.63;;
57599;SDS011;43426;43.594;24.334;2023-06-14T14:57:38;5.47;;;3.78;;
57599;SDS011;43426;43.594;24.334;2023-06-14T15:00:04;4.03;;;3.72;;
57599;SDS011;43426;43.594;24.334;2023-06-14T15:02:31;4.28;;;3.80;;
57599;SDS011;43426;43.594;24.334;2023-06-14T15:04:56;3.88;;;3.58;;
57599;SDS011;43426;43.594;24.334;2023-06-14T15:07:26;4.32;;;4.03;;
57599;SDS011;43426;43.594;24.334;2023-06-14T15:09:56;4.18;;;3.88;;
57599;SDS011;43426;43.594;24.334;2023-06-14T15:12:21;3.70;;;3.50;;
57599;SDS011;43426;43.594;24.334;2023-06-14T15:14:51;3.47;;;3.28;;
57599;SDS011;43426;43.594;24.334;2023-06-14T15:17:17;4.25;;;3.60;;
57599;SDS011;43426;43.594;24.334;2023-06-14T15:19:46;3.47;;;3.25;;
57599;SDS011;43426;43.594;24.334;2023-06-14T15:22:12;3.63;;;3.42;;
57599;SDS011;43426;43.594;24.334;2023-06-14T15:24:40;3.85;;;3.55;;
57599;SDS011;43426;43.594;24.334;2023-06-14T15:27:06;3.95;;;3.60;;
57599;SDS011;43426;43.594;24.334;2023-06-14T15:29:31;7.18;;;4.38;;
57599;SDS011;43426;43.594;24.334;2023-06-14T15:31:56;4.60;;;4.20;;
57599;SDS011;43426;43.594;24.334;2023-06-14T15:34:23;4.82;;;4.25;;
57599;SDS011;43426;43.594;24.334;2023-06-14T15:36:48;4.55;;;4.15;;
57599;SDS011;43426;43.594;24.334;2023-06-14T15:39:14;4.05;;;3.65;;
57599;SDS011;43426;43.594;24.334;2023-06-14T15:41:40;4.47;;;3.83;;
57599;SDS011;43426;43.594;24.334;2023-06-14T15:44:06;3.90;;;3.60;;
57599;SDS011;43426;43.594;24.334;2023-06-14T15:46:31;4.38;;;3.97;;
57599;SDS011;43426;43.594;24.334;2023-06-14T15:48:57;4.57;;;3.65;;
57599;SDS011;43426;43.594;24.334;2023-06-14T15:51:22;4.05;;;3.75;;
57599;SDS011;43426;43.594;24.334;2023-06-14T15:53:48;4.18;;;3.80;;
57599;SDS011;43426;43.594;24.334;2023-06-14T15:56:13;3.85;;;3.55;;
57599;SDS011;43426;43.594;24.334;2023-06-14T15:58:39;4.38;;;4.07;;
57599;SDS011;43426;43.594;24.334;2023-06-14T16:01:04;4.28;;;3.92;;
57599;SDS011;43426;43.594;24.334;2023-06-14T16:03:29;5.15;;;3.58;;